Terminal Aerodrome Forecast
Issued by NWS

Home | Current Version | Previous Version | Graphics & Text | Print | Product List | Glossary On
Versions: 1 2 3 4 5 6 7 8 9 10 11 12 13 14 15 16 17 18 19
492
FTUS43 KICT 111728 AAC
TAFHUT
TAF AMD
KHUT 111728Z 1117/1218 06005KT P6SM SKC
     FM112000 16005KT P6SM SKC
     FM120400 22005KT P6SM SCT250
     FM120700 27007KT P6SM SCT250
     FM121100 34012KT P6SM SCT200=

USA.gov is the U.S. government's official web portal to all federal, state and local government web resources and services.